sensor_id;sensor_type;location;lat;lon;timestamp;pressure;altitude;pressure_sealevel;temperature;humidity
65013;BME280;51715;39.432;-77.518;2023-07-22T00:01:10;98894.91;;;31.72;28.81
65013;BME280;51715;39.432;-77.518;2023-07-22T00:03:39;98896.84;;;31.70;29.20
65013;BME280;51715;39.432;-77.518;2023-07-22T00:06:09;98898.03;;;31.47;29.44
65013;BME280;51715;39.432;-77.518;2023-07-22T00:08:38;98898.82;;;31.47;29.26
65013;BME280;51715;39.432;-77.518;2023-07-22T00:11:07;98900.59;;;31.68;29.40
65013;BME280;51715;39.432;-77.518;2023-07-22T00:13:36;98902.41;;;31.61;29.49
65013;BME280;51715;39.432;-77.518;2023-07-22T00:16:05;98898.57;;;31.77;29.55
65013;BME280;51715;39.432;-77.518;2023-07-22T00:18:33;98894.89;;;31.64;29.57
65013;BME280;51715;39.432;-77.518;2023-07-22T00:21:01;98899.08;;;31.32;29.26
65013;BME280;51715;39.432;-77.518;2023-07-22T00:23:30;98899.00;;;31.29;29.66
65013;BME280;51715;39.432;-77.518;2023-07-22T00:25:58;98898.43;;;31.05;30.08
65013;BME280;51715;39.432;-77.518;2023-07-22T00:28:26;98899.65;;;31.01;30.18
65013;BME280;51715;39.432;-77.518;2023-07-22T00:30:55;98903.03;;;31.16;30.06
65013;BME280;51715;39.432;-77.518;2023-07-22T00:33:24;98905.84;;;31.00;30.18
65013;BME280;51715;39.432;-77.518;2023-07-22T00:35:52;98907.76;;;30.93;30.31
65013;BME280;51715;39.432;-77.518;2023-07-22T00:38:21;98906.59;;;30.82;30.36
65013;BME280;51715;39.432;-77.518;2023-07-22T00:40:50;98909.15;;;30.71;30.49
65013;BME280;51715;39.432;-77.518;2023-07-22T00:43:17;98910.91;;;30.40;30.94
65013;BME280;51715;39.432;-77.518;2023-07-22T00:45:46;98909.20;;;30.95;31.08
65013;BME280;51715;39.432;-77.518;2023-07-22T00:48:15;98917.15;;;30.62;31.50
65013;BME280;51715;39.432;-77.518;2023-07-22T00:50:44;98920.62;;;30.72;30.99
65013;BME280;51715;39.432;-77.518;2023-07-22T00:53:12;98925.36;;;30.09;30.97
65013;BME280;51715;39.432;-77.518;2023-07-22T00:55:42;98926.92;;;30.52;31.79
65013;BME280;51715;39.432;-77.518;2023-07-22T00:58:11;98930.50;;;30.44;31.50
65013;BME280;51715;39.432;-77.518;2023-07-22T01:00:39;98931.29;;;30.35;31.64
65013;BME280;51715;39.432;-77.518;2023-07-22T01:03:07;98933.74;;;30.21;32.87
65013;BME280;51715;39.432;-77.518;2023-07-22T01:05:36;98937.08;;;29.81;32.42
65013;BME280;51715;39.432;-77.518;2023-07-22T01:08:06;98941.01;;;29.86;32.69
65013;BME280;51715;39.432;-77.518;2023-07-22T01:10:34;98941.00;;;29.65;33.05
65013;BME280;51715;39.432;-77.518;2023-07-22T01:13:03;98940.85;;;29.45;33.29
65013;BME280;51715;39.432;-77.518;2023-07-22T01:15:31;98941.03;;;29.26;33.65
65013;BME280;51715;39.432;-77.518;2023-07-22T01:18:01;98948.76;;;29.32;33.95
65013;BME280;51715;39.432;-77.518;2023-07-22T01:20:31;98955.19;;;29.33;34.17
65013;BME280;51715;39.432;-77.518;2023-07-22T01:23:00;98955.66;;;29.29;34.57
65013;BME280;51715;39.432;-77.518;2023-07-22T01:25:29;98952.30;;;28.90;34.40
65013;BME280;51715;39.432;-77.518;2023-07-22T01:27:57;98955.88;;;28.74;35.77
65013;BME280;51715;39.432;-77.518;2023-07-22T01:30:26;98965.70;;;28.78;35.93
65013;BME280;51715;39.432;-77.518;2023-07-22T01:32:54;98967.09;;;29.01;35.28
65013;BME280;51715;39.432;-77.518;2023-07-22T01:35:22;98971.34;;;28.54;35.38
65013;BME280;51715;39.432;-77.518;2023-07-22T01:37:51;98975.91;;;28.28;35.95
65013;BME280;51715;39.432;-77.518;2023-07-22T01:40:19;98980.94;;;28.25;35.82
65013;BME280;51715;39.432;-77.518;2023-07-22T01:42:47;98986.77;;;27.97;37.13
65013;BME280;51715;39.432;-77.518;2023-07-22T01:45:16;98988.06;;;28.18;37.04
65013;BME280;51715;39.432;-77.518;2023-07-22T01:47:45;98985.27;;;28.21;37.05
65013;BME280;51715;39.432;-77.518;2023-07-22T01:50:13;98984.93;;;27.86;37.83
65013;BME280;51715;39.432;-77.518;2023-07-22T01:52:42;98989.81;;;27.48;38.11
65013;BME280;51715;39.432;-77.518;2023-07-22T01:55:11;98987.91;;;27.82;38.11
65013;BME280;51715;39.432;-77.518;2023-07-22T01:57:41;98986.48;;;27.82;38.15
65013;BME280;51715;39.432;-77.518;2023-07-22T02:00:11;98983.24;;;27.79;38.09
65013;BME280;51715;39.432;-77.518;2023-07-22T02:02:40;98984.50;;;27.69;38.21
65013;BME280;51715;39.432;-77.518;2023-07-22T02:05:09;98991.95;;;27.65;38.18
65013;BME280;51715;39.432;-77.518;2023-07-22T02:07:37;98997.37;;;27.59;38.31
65013;BME280;51715;39.432;-77.518;2023-07-22T02:10:06;98994.89;;;27.92;38.57
65013;BME280;51715;39.432;-77.518;2023-07-22T02:12:35;98997.51;;;27.40;38.63
65013;BME280;51715;39.432;-77.518;2023-07-22T02:15:05;98999.86;;;27.51;38.63
65013;BME280;51715;39.432;-77.518;2023-07-22T02:17:33;99000.66;;;27.16;38.81
65013;BME280;51715;39.432;-77.518;2023-07-22T02:20:03;99005.44;;;27.55;38.94
65013;BME280;51715;39.432;-77.518;2023-07-22T02:22:31;99012.41;;;27.13;39.27
65013;BME280;51715;39.432;-77.518;2023-07-22T02:24:59;99017.47;;;26.76;39.29
65013;BME280;51715;39.432;-77.518;2023-07-22T02:27:28;99021.02;;;26.90;39.74
65013;BME280;51715;39.432;-77.518;2023-07-22T02:29:57;99022.73;;;27.10;39.71
65013;BME280;51715;39.432;-77.518;2023-07-22T02:32:25;99026.75;;;27.06;39.62
65013;BME280;51715;39.432;-77.518;2023-07-22T02:34:52;99024.48;;;26.80;39.56
65013;BME280;51715;39.432;-77.518;2023-07-22T02:37:20;99024.62;;;26.66;39.68
65013;BME280;51715;39.432;-77.518;2023-07-22T02:39:48;99024.48;;;26.77;39.40
65013;BME280;51715;39.432;-77.518;2023-07-22T02:42:17;99024.62;;;26.26;39.63
65013;BME280;51715;39.432;-77.518;2023-07-22T02:44:45;99027.51;;;26.26;39.77
65013;BME280;51715;39.432;-77.518;2023-07-22T02:47:14;99032.14;;;26.66;39.48
65013;BME280;51715;39.432;-77.518;2023-07-22T02:49:43;99035.56;;;26.50;39.85
65013;BME280;51715;39.432;-77.518;2023-07-22T02:52:11;99036.29;;;26.48;39.86
65013;BME280;51715;39.432;-77.518;2023-07-22T02:54:41;99037.34;;;26.44;39.95
65013;BME280;51715;39.432;-77.518;2023-07-22T02:57:10;99038.52;;;26.44;39.84
65013;BME280;51715;39.432;-77.518;2023-07-22T02:59:38;99040.69;;;26.49;39.93
65013;BME280;51715;39.432;-77.518;2023-07-22T03:02:06;99041.66;;;26.26;39.68
65013;BME280;51715;39.432;-77.518;2023-07-22T03:04:34;99041.90;;;26.47;39.48
65013;BME280;51715;39.432;-77.518;2023-07-22T03:07:03;99041.57;;;26.39;39.58
65013;BME280;51715;39.432;-77.518;2023-07-22T03:09:31;99043.00;;;26.60;40.02
65013;BME280;51715;39.432;-77.518;2023-07-22T03:11:59;99042.86;;;26.25;40.10
65013;BME280;51715;39.432;-77.518;2023-07-22T03:14:27;99047.09;;;26.22;40.30
65013;BME280;51715;39.432;-77.518;2023-07-22T03:16:56;99047.23;;;26.45;40.43
65013;BME280;51715;39.432;-77.518;2023-07-22T03:19:25;99052.22;;;26.19;40.40
65013;BME280;51715;39.432;-77.518;2023-07-22T03:21:52;99050.85;;;26.19;40.12
65013;BME280;51715;39.432;-77.518;2023-07-22T03:24:20;99049.73;;;26.09;40.23
65013;BME280;51715;39.432;-77.518;2023-07-22T03:26:48;99045.20;;;26.30;40.23
65013;BME280;51715;39.432;-77.518;2023-07-22T03:29:17;99044.82;;;26.49;40.20
65013;BME280;51715;39.432;-77.518;2023-07-22T03:31:45;99045.20;;;25.97;40.10
65013;BME280;51715;39.432;-77.518;2023-07-22T03:34:14;99046.52;;;26.40;39.97
65013;BME280;51715;39.432;-77.518;2023-07-22T03:36:42;99044.00;;;26.10;39.97
65013;BME280;51715;39.432;-77.518;2023-07-22T03:39:11;99045.13;;;26.18;40.04
65013;BME280;51715;39.432;-77.518;2023-07-22T03:41:39;99044.29;;;26.16;40.22
65013;BME280;51715;39.432;-77.518;2023-07-22T03:44:07;99042.74;;;26.16;40.22
65013;BME280;51715;39.432;-77.518;2023-07-22T03:46:35;99042.33;;;25.64;40.20
65013;BME280;51715;39.432;-77.518;2023-07-22T03:49:04;99041.38;;;26.03;40.21
65013;BME280;51715;39.432;-77.518;2023-07-22T03:51:32;99043.34;;;25.75;40.21
65013;BME280;51715;39.432;-77.518;2023-07-22T03:54:00;99051.10;;;25.72;40.23
65013;BME280;51715;39.432;-77.518;2023-07-22T03:56:29;99057.41;;;25.91;40.56
65013;BME280;51715;39.432;-77.518;2023-07-22T03:58:57;99059.04;;;25.63;40.44
65013;BME280;51715;39.432;-77.518;2023-07-22T04:04:01;99062.56;;;25.58;39.13
65013;BME280;51715;39.432;-77.518;2023-07-22T04:06:29;99065.67;;;25.50;39.10
65013;BME280;51715;39.432;-77.518;2023-07-22T04:08:58;99066.45;;;25.43;39.19
65013;BME280;51715;39.432;-77.518;2023-07-22T04:11:26;99064.08;;;25.80;39.27
65013;BME280;51715;39.432;-77.518;2023-07-22T04:13:54;99070.09;;;25.73;39.60
65013;BME280;51715;39.432;-77.518;2023-07-22T04:16:23;99074.33;;;25.61;40.20
65013;BME280;51715;39.432;-77.518;2023-07-22T04:18:51;99074.23;;;25.45;40.39
65013;BME280;51715;39.432;-77.518;2023-07-22T04:21:19;99075.53;;;25.01;40.88
65013;BME280;51715;39.432;-77.518;2023-07-22T04:23:48;99078.00;;;25.06;41.03
65013;BME280;51715;39.432;-77.518;2023-07-22T04:26:18;99082.71;;;24.93;41.25
65013;BME280;51715;39.432;-77.518;2023-07-22T04:28:45;99089.96;;;24.88;41.34
65013;BME280;51715;39.432;-77.518;2023-07-22T04:31:13;99092.17;;;24.86;41.32
65013;BME280;51715;39.432;-77.518;2023-07-22T04:33:41;99088.92;;;24.84;41.19
65013;BME280;51715;39.432;-77.518;2023-07-22T04:36:10;99086.44;;;24.76;41.29
65013;BME280;51715;39.432;-77.518;2023-07-22T04:38:38;99089.48;;;24.97;41.43
65013;BME280;51715;39.432;-77.518;2023-07-22T04:41:06;99088.80;;;24.92;41.53
65013;BME280;51715;39.432;-77.518;2023-07-22T04:43:34;99082.64;;;24.61;41.55
65013;BME280;51715;39.432;-77.518;2023-07-22T04:46:02;99084.63;;;24.59;41.57
65013;BME280;51715;39.432;-77.518;2023-07-22T04:48:30;99088.71;;;24.79;41.55
65013;BME280;51715;39.432;-77.518;2023-07-22T04:50:59;99084.88;;;24.97;41.68
65013;BME280;51715;39.432;-77.518;2023-07-22T04:53:27;99084.96;;;24.71;41.64
65013;BME280;51715;39.432;-77.518;2023-07-22T04:55:55;99081.70;;;24.37;41.69
65013;BME280;51715;39.432;-77.518;2023-07-22T04:58:24;99084.78;;;24.54;41.87
65013;BME280;51715;39.432;-77.518;2023-07-22T05:00:52;99087.85;;;24.56;41.94
65013;BME280;51715;39.432;-77.518;2023-07-22T05:03:21;99094.26;;;24.46;42.39
65013;BME280;51715;39.432;-77.518;2023-07-22T05:05:49;99091.92;;;24.43;42.45
65013;BME280;51715;39.432;-77.518;2023-07-22T05:08:17;99085.02;;;24.37;42.59
65013;BME280;51715;39.432;-77.518;2023-07-22T05:10:46;99083.89;;;24.40;42.42
65013;BME280;51715;39.432;-77.518;2023-07-22T05:13:15;99080.39;;;24.13;42.46
65013;BME280;51715;39.432;-77.518;2023-07-22T05:15:43;99079.18;;;24.58;42.34
65013;BME280;51715;39.432;-77.518;2023-07-22T05:18:11;99071.99;;;24.36;42.16
65013;BME280;51715;39.432;-77.518;2023-07-22T05:20:39;99070.27;;;23.91;42.27
65013;BME280;51715;39.432;-77.518;2023-07-22T05:23:07;99065.50;;;24.19;42.13
65013;BME280;51715;39.432;-77.518;2023-07-22T05:25:35;99061.56;;;24.33;42.09
65013;BME280;51715;39.432;-77.518;2023-07-22T05:28:04;99059.84;;;24.25;42.20
65013;BME280;51715;39.432;-77.518;2023-07-22T05:30:32;99058.10;;;24.21;42.22
65013;BME280;51715;39.432;-77.518;2023-07-22T05:33:00;99050.66;;;24.08;42.26
65013;BME280;51715;39.432;-77.518;2023-07-22T05:35:29;99053.12;;;23.91;42.65
65013;BME280;51715;39.432;-77.518;2023-07-22T05:37:57;99052.77;;;23.81;43.03
65013;BME280;51715;39.432;-77.518;2023-07-22T05:40:25;99057.78;;;23.79;43.32
65013;BME280;51715;39.432;-77.518;2023-07-22T05:42:53;99061.69;;;23.63;43.56
65013;BME280;51715;39.432;-77.518;2023-07-22T05:45:22;99061.08;;;23.32;43.54
65013;BME280;51715;39.432;-77.518;2023-07-22T05:47:51;99064.19;;;23.57;43.19
65013;BME280;51715;39.432;-77.518;2023-07-22T05:50:19;99065.63;;;23.92;43.10
65013;BME280;51715;39.432;-77.518;2023-07-22T05:52:47;99060.26;;;23.50;42.89
65013;BME280;51715;39.432;-77.518;2023-07-22T05:55:15;99049.63;;;24.05;42.89
65013;BME280;51715;39.432;-77.518;2023-07-22T05:57:43;99041.87;;;24.07;42.72
65013;BME280;51715;39.432;-77.518;2023-07-22T06:00:13;99038.98;;;23.64;42.55
65013;BME280;51715;39.432;-77.518;2023-07-22T06:02:41;99034.98;;;23.67;42.61
65013;BME280;51715;39.432;-77.518;2023-07-22T06:05:09;99032.78;;;23.70;42.46
65013;BME280;51715;39.432;-77.518;2023-07-22T06:07:38;99028.91;;;23.66;42.69
65013;BME280;51715;39.432;-77.518;2023-07-22T06:10:08;99026.49;;;23.65;42.65
65013;BME280;51715;39.432;-77.518;2023-07-22T06:12:36;99029.94;;;23.62;42.75
65013;BME280;51715;39.432;-77.518;2023-07-22T06:15:06;99034.11;;;23.57;42.83
65013;BME280;51715;39.432;-77.518;2023-07-22T06:17:34;99036.48;;;23.55;42.93
65013;BME280;51715;39.432;-77.518;2023-07-22T06:20:02;99033.91;;;23.60;42.82
65013;BME280;51715;39.432;-77.518;2023-07-22T06:22:31;99038.36;;;23.78;43.08
65013;BME280;51715;39.432;-77.518;2023-07-22T06:24:59;99042.04;;;23.82;42.74
65013;BME280;51715;39.432;-77.518;2023-07-22T06:27:27;99044.45;;;23.64;42.48
65013;BME280;51715;39.432;-77.518;2023-07-22T06:29:55;99047.97;;;23.93;42.33
65013;BME280;51715;39.432;-77.518;2023-07-22T06:32:23;99043.64;;;23.60;42.25
65013;BME280;51715;39.432;-77.518;2023-07-22T06:34:52;99041.65;;;23.70;42.36
65013;BME280;51715;39.432;-77.518;2023-07-22T06:37:20;99043.65;;;23.79;42.16
65013;BME280;51715;39.432;-77.518;2023-07-22T06:39:48;99047.38;;;24.24;42.09
65013;BME280;51715;39.432;-77.518;2023-07-22T06:42:16;99049.70;;;23.95;42.11
65013;BME280;51715;39.432;-77.518;2023-07-22T06:44:43;99047.73;;;23.92;42.18
65013;BME280;51715;39.432;-77.518;2023-07-22T06:47:12;99042.07;;;24.12;42.20
65013;BME280;51715;39.432;-77.518;2023-07-22T06:49:41;99038.84;;;24.09;42.27
65013;BME280;51715;39.432;-77.518;2023-07-22T06:52:09;99037.10;;;24.08;42.23
65013;BME280;51715;39.432;-77.518;2023-07-22T06:54:39;99033.14;;;23.86;42.17
65013;BME280;51715;39.432;-77.518;2023-07-22T06:57:07;99029.11;;;23.85;42.02
65013;BME280;51715;39.432;-77.518;2023-07-22T06:59:35;99026.20;;;24.05;42.00
65013;BME280;51715;39.432;-77.518;2023-07-22T07:02:04;99025.87;;;23.98;42.09
65013;BME280;51715;39.432;-77.518;2023-07-22T07:04:32;99021.99;;;23.66;42.01
65013;BME280;51715;39.432;-77.518;2023-07-22T07:07:01;99021.40;;;23.83;42.19
65013;BME280;51715;39.432;-77.518;2023-07-22T07:09:29;99021.67;;;23.77;42.25
65013;BME280;51715;39.432;-77.518;2023-07-22T07:11:57;99022.41;;;23.55;41.71
65013;BME280;51715;39.432;-77.518;2023-07-22T07:14:25;99023.93;;;23.78;41.75
65013;BME280;51715;39.432;-77.518;2023-07-22T07:16:54;99020.86;;;24.10;41.63
65013;BME280;51715;39.432;-77.518;2023-07-22T07:19:22;99018.11;;;23.63;41.93
65013;BME280;51715;39.432;-77.518;2023-07-22T07:21:50;99019.38;;;23.84;42.22
65013;BME280;51715;39.432;-77.518;2023-07-22T07:24:19;99021.56;;;23.78;42.16
65013;BME280;51715;39.432;-77.518;2023-07-22T07:26:47;99023.90;;;23.75;42.14
65013;BME280;51715;39.432;-77.518;2023-07-22T07:29:15;99024.45;;;23.77;41.85
65013;BME280;51715;39.432;-77.518;2023-07-22T07:31:44;99024.85;;;23.44;41.81
65013;BME280;51715;39.432;-77.518;2023-07-22T07:34:11;99022.89;;;23.73;41.67
65013;BME280;51715;39.432;-77.518;2023-07-22T07:36:39;99020.55;;;23.57;41.81
65013;BME280;51715;39.432;-77.518;2023-07-22T07:39:08;99022.46;;;23.86;41.71
65013;BME280;51715;39.432;-77.518;2023-07-22T07:41:36;99022.69;;;23.68;41.30
65013;BME280;51715;39.432;-77.518;2023-07-22T07:44:05;99020.95;;;23.79;40.98
65013;BME280;51715;39.432;-77.518;2023-07-22T07:46:33;99023.25;;;23.85;40.73
65013;BME280;51715;39.432;-77.518;2023-07-22T07:49:02;99020.66;;;23.82;41.30
65013;BME280;51715;39.432;-77.518;2023-07-22T07:51:31;99023.44;;;24.00;41.14
65013;BME280;51715;39.432;-77.518;2023-07-22T07:54:00;99020.09;;;23.71;41.31
65013;BME280;51715;39.432;-77.518;2023-07-22T07:56:28;99023.31;;;23.89;41.50
65013;BME280;51715;39.432;-77.518;2023-07-22T07:58:56;99019.59;;;23.56;41.70
65013;BME280;51715;39.432;-77.518;2023-07-22T08:01:24;99017.03;;;23.66;41.69
65013;BME280;51715;39.432;-77.518;2023-07-22T08:03:52;99012.79;;;23.91;41.72
65013;BME280;51715;39.432;-77.518;2023-07-22T08:06:20;99008.77;;;23.41;41.60
65013;BME280;51715;39.432;-77.518;2023-07-22T08:08:49;99010.85;;;23.34;41.73
65013;BME280;51715;39.432;-77.518;2023-07-22T08:11:17;99007.95;;;23.53;41.67
65013;BME280;51715;39.432;-77.518;2023-07-22T08:13:46;99005.64;;;23.72;41.68
65013;BME280;51715;39.432;-77.518;2023-07-22T08:16:15;99009.21;;;23.69;41.86
65013;BME280;51715;39.432;-77.518;2023-07-22T08:18:43;99010.10;;;23.17;41.96
65013;BME280;51715;39.432;-77.518;2023-07-22T08:21:11;99015.30;;;23.36;41.98
65013;BME280;51715;39.432;-77.518;2023-07-22T08:23:39;99013.93;;;23.30;42.00
65013;BME280;51715;39.432;-77.518;2023-07-22T08:26:08;99012.23;;;23.25;41.92
65013;BME280;51715;39.432;-77.518;2023-07-22T08:28:36;99013.96;;;23.51;42.01
65013;BME280;51715;39.432;-77.518;2023-07-22T08:31:05;99013.76;;;23.49;42.17
65013;BME280;51715;39.432;-77.518;2023-07-22T08:33:32;99010.73;;;23.15;42.83
65013;BME280;51715;39.432;-77.518;2023-07-22T08:36:01;99006.66;;;23.39;42.48
65013;BME280;51715;39.432;-77.518;2023-07-22T08:38:29;99000.84;;;23.08;42.41
65013;BME280;51715;39.432;-77.518;2023-07-22T08:40:57;99003.53;;;23.02;42.43
65013;BME280;51715;39.432;-77.518;2023-07-22T08:43:28;99006.62;;;22.99;42.58
65013;BME280;51715;39.432;-77.518;2023-07-22T08:46:00;99002.26;;;23.18;42.69
65013;BME280;51715;39.432;-77.518;2023-07-22T08:48:31;99008.48;;;22.92;43.11
65013;BME280;51715;39.432;-77.518;2023-07-22T08:51:03;99011.61;;;22.81;43.28
65013;BME280;51715;39.432;-77.518;2023-07-22T08:53:31;99018.34;;;22.63;43.14
65013;BME280;51715;39.432;-77.518;2023-07-22T08:56:00;99022.10;;;22.84;43.26
65013;BME280;51715;39.432;-77.518;2023-07-22T08:58:29;99031.54;;;22.79;43.25
65013;BME280;51715;39.432;-77.518;2023-07-22T09:00:59;99033.19;;;22.82;43.22
65013;BME280;51715;39.432;-77.518;2023-07-22T09:03:28;99034.34;;;22.87;43.38
65013;BME280;51715;39.432;-77.518;2023-07-22T09:05:56;99038.65;;;23.03;42.95
65013;BME280;51715;39.432;-77.518;2023-07-22T09:08:24;99041.78;;;22.85;42.91
65013;BME280;51715;39.432;-77.518;2023-07-22T09:10:52;99045.68;;;22.89;42.73
65013;BME280;51715;39.432;-77.518;2023-07-22T09:13:21;99047.95;;;23.02;42.34
65013;BME280;51715;39.432;-77.518;2023-07-22T09:15:50;99050.30;;;23.11;42.09
65013;BME280;51715;39.432;-77.518;2023-07-22T09:18:18;99054.89;;;23.12;42.03
65013;BME280;51715;39.432;-77.518;2023-07-22T09:20:46;99057.35;;;23.14;42.01
65013;BME280;51715;39.432;-77.518;2023-07-22T09:23:14;99055.66;;;23.16;42.31
65013;BME280;51715;39.432;-77.518;2023-07-22T09:25:43;99058.94;;;22.92;42.41
65013;BME280;51715;39.432;-77.518;2023-07-22T09:28:11;99061.20;;;23.17;42.66
65013;BME280;51715;39.432;-77.518;2023-07-22T09:30:40;99060.88;;;23.16;42.73
65013;BME280;51715;39.432;-77.518;2023-07-22T09:33:20;99062.54;;;23.14;42.69
65013;BME280;51715;39.432;-77.518;2023-07-22T09:35:50;99070.35;;;23.06;42.61
65013;BME280;51715;39.432;-77.518;2023-07-22T09:38:23;99078.02;;;22.63;43.18
65013;BME280;51715;39.432;-77.518;2023-07-22T09:40:53;99085.95;;;22.63;43.19
65013;BME280;51715;39.432;-77.518;2023-07-22T09:43:23;99090.49;;;22.65;43.12
65013;BME280;51715;39.432;-77.518;2023-07-22T09:45:51;99093.64;;;22.68;43.07
65013;BME280;51715;39.432;-77.518;2023-07-22T09:48:22;99094.35;;;22.68;43.14
65013;BME280;51715;39.432;-77.518;2023-07-22T09:50:56;99096.79;;;22.70;42.97
65013;BME280;51715;39.432;-77.518;2023-07-22T09:53:24;99095.68;;;22.72;42.70
65013;BME280;51715;39.432;-77.518;2023-07-22T09:55:53;99094.29;;;22.78;42.62
65013;BME280;51715;39.432;-77.518;2023-07-22T09:58:24;99093.53;;;22.80;42.65
65013;BME280;51715;39.432;-77.518;2023-07-22T10:00:55;99098.83;;;23.13;42.76
65013;BME280;51715;39.432;-77.518;2023-07-22T10:03:24;99105.86;;;22.65;42.86
65013;BME280;51715;39.432;-77.518;2023-07-22T10:05:59;99111.43;;;22.52;43.14
65013;BME280;51715;39.432;-77.518;2023-07-22T10:08:30;99118.01;;;22.31;43.51
65013;BME280;51715;39.432;-77.518;2023-07-22T10:11:01;99122.49;;;22.48;43.70
65013;BME280;51715;39.432;-77.518;2023-07-22T10:13:31;99127.58;;;22.04;43.65
65013;BME280;51715;39.432;-77.518;2023-07-22T10:15:59;99131.43;;;22.61;43.55
65013;BME280;51715;39.432;-77.518;2023-07-22T10:18:27;99131.94;;;22.37;43.52
65013;BME280;51715;39.432;-77.518;2023-07-22T10:20:57;99134.36;;;22.36;43.58
65013;BME280;51715;39.432;-77.518;2023-07-22T10:23:26;99137.67;;;22.84;43.59
65013;BME280;51715;39.432;-77.518;2023-07-22T10:25:55;99139.25;;;22.47;43.49
65013;BME280;51715;39.432;-77.518;2023-07-22T10:28:25;99137.21;;;22.49;43.58
65013;BME280;51715;39.432;-77.518;2023-07-22T10:30:53;99139.30;;;22.75;43.60
65013;BME280;51715;39.432;-77.518;2023-07-22T10:33:21;99139.38;;;22.67;43.59
65013;BME280;51715;39.432;-77.518;2023-07-22T10:36:07;99143.43;;;22.65;43.40
65013;BME280;51715;39.432;-77.518;2023-07-22T10:38:36;99142.25;;;22.69;43.33
65013;BME280;51715;39.432;-77.518;2023-07-22T10:41:12;99144.33;;;22.55;43.80
65013;BME280;51715;39.432;-77.518;2023-07-22T10:43:41;99145.93;;;22.60;43.79
65013;BME280;51715;39.432;-77.518;2023-07-22T10:46:11;99144.49;;;22.67;43.83
65013;BME280;51715;39.432;-77.518;2023-07-22T10:48:41;99146.46;;;22.78;43.73
65013;BME280;51715;39.432;-77.518;2023-07-22T10:51:12;99147.75;;;22.79;43.95
65013;BME280;51715;39.432;-77.518;2023-07-22T10:53:42;99150.69;;;22.92;43.83
65013;BME280;51715;39.432;-77.518;2023-07-22T10:56:13;99153.59;;;22.76;43.83
65013;BME280;51715;39.432;-77.518;2023-07-22T10:58:57;99151.50;;;22.87;43.83
65013;BME280;51715;39.432;-77.518;2023-07-22T11:01:34;99146.43;;;23.24;43.67
65013;BME280;51715;39.432;-77.518;2023-07-22T11:04:12;99142.62;;;23.09;43.44
65013;BME280;51715;39.432;-77.518;2023-07-22T11:06:53;99140.02;;;23.23;43.59
65013;BME280;51715;39.432;-77.518;2023-07-22T11:09:38;99141.43;;;23.35;43.60
65013;BME280;51715;39.432;-77.518;2023-07-22T11:12:09;99135.02;;;23.70;43.05
65013;BME280;51715;39.432;-77.518;2023-07-22T11:14:40;99136.68;;;23.51;43.31
65013;BME280;51715;39.432;-77.518;2023-07-22T11:17:08;99136.87;;;23.40;43.15
65013;BME280;51715;39.432;-77.518;2023-07-22T11:19:36;99140.18;;;23.46;43.23
65013;BME280;51715;39.432;-77.518;2023-07-22T11:22:06;99147.08;;;23.57;43.44
65013;BME280;51715;39.432;-77.518;2023-07-22T11:24:35;99149.23;;;23.98;43.41
65013;BME280;51715;39.432;-77.518;2023-07-22T11:27:05;99148.72;;;23.58;43.59
65013;BME280;51715;39.432;-77.518;2023-07-22T11:29:34;99151.50;;;23.69;43.67
65013;BME280;51715;39.432;-77.518;2023-07-22T11:32:02;99156.76;;;23.86;43.56
65013;BME280;51715;39.432;-77.518;2023-07-22T11:34:31;99159.16;;;23.98;42.30
65013;BME280;51715;39.432;-77.518;2023-07-22T11:37:00;99160.02;;;24.13;42.67
65013;BME280;51715;39.432;-77.518;2023-07-22T11:39:28;99156.07;;;24.29;42.17
65013;BME280;51715;39.432;-77.518;2023-07-22T11:41:56;99155.78;;;24.48;42.01
65013;BME280;51715;39.432;-77.518;2023-07-22T11:44:28;99156.80;;;24.13;42.17
65013;BME280;51715;39.432;-77.518;2023-07-22T11:46:58;99158.15;;;24.57;42.46
65013;BME280;51715;39.432;-77.518;2023-07-22T11:49:28;99163.23;;;24.76;42.76
65013;BME280;51715;39.432;-77.518;2023-07-22T11:51:57;99167.52;;;24.88;41.96
65013;BME280;51715;39.432;-77.518;2023-07-22T11:54:26;99170.61;;;24.76;41.89
65013;BME280;51715;39.432;-77.518;2023-07-22T11:56:55;99169.41;;;24.97;42.02
65013;BME280;51715;39.432;-77.518;2023-07-22T11:59:40;99175.39;;;25.19;42.04
65013;BME280;51715;39.432;-77.518;2023-07-22T12:02:13;99185.60;;;25.43;41.66
65013;BME280;51715;39.432;-77.518;2023-07-22T12:04:42;99187.06;;;25.34;40.97
65013;BME280;51715;39.432;-77.518;2023-07-22T12:07:23;99184.49;;;25.47;39.68
65013;BME280;51715;39.432;-77.518;2023-07-22T12:09:52;99182.78;;;25.52;39.11
65013;BME280;51715;39.432;-77.518;2023-07-22T12:12:20;99185.37;;;25.53;39.47
65013;BME280;51715;39.432;-77.518;2023-07-22T12:14:49;99184.43;;;25.53;39.37
65013;BME280;51715;39.432;-77.518;2023-07-22T12:17:17;99180.90;;;25.32;39.51
65013;BME280;51715;39.432;-77.518;2023-07-22T12:19:52;99180.16;;;25.72;39.82
65013;BME280;51715;39.432;-77.518;2023-07-22T12:22:21;99178.87;;;26.04;39.36
65013;BME280;51715;39.432;-77.518;2023-07-22T12:24:49;99180.73;;;25.59;39.30
65013;BME280;51715;39.432;-77.518;2023-07-22T12:27:18;99181.82;;;26.04;39.08
65013;BME280;51715;39.432;-77.518;2023-07-22T12:29:46;99185.35;;;26.13;38.71
65013;BME280;51715;39.432;-77.518;2023-07-22T12:32:14;99189.84;;;25.95;38.83
65013;BME280;51715;39.432;-77.518;2023-07-22T12:34:42;99188.22;;;25.81;37.90
65013;BME280;51715;39.432;-77.518;2023-07-22T12:37:10;99186.44;;;26.05;38.47
65013;BME280;51715;39.432;-77.518;2023-07-22T12:39:39;99189.58;;;25.90;39.23
65013;BME280;51715;39.432;-77.518;2023-07-22T12:42:07;99191.18;;;26.19;38.35
65013;BME280;51715;39.432;-77.518;2023-07-22T12:44:34;99195.67;;;26.47;38.97
65013;BME280;51715;39.432;-77.518;2023-07-22T12:47:04;99197.79;;;26.54;40.15
65013;BME280;51715;39.432;-77.518;2023-07-22T12:49:33;99200.75;;;26.59;39.62
65013;BME280;51715;39.432;-77.518;2023-07-22T12:52:01;99199.57;;;26.43;38.35